createdAt,value
2022-12-19T00:02:38.873Z,27.17
2022-12-19T00:05:42.140Z,25.95
2022-12-19T00:08:45.843Z,25.10
2022-12-19T00:11:48.456Z,27.10
2022-12-19T00:14:50.101Z,26.83
2022-12-19T00:17:51.619Z,25.98
2022-12-19T00:21:00.643Z,27.38
2022-12-19T00:24:05.187Z,27.02
2022-12-19T00:27:21.633Z,26.25
2022-12-19T00:30:23.207Z,26.63
2022-12-19T00:33:24.739Z,27.25
2022-12-19T00:36:31.156Z,27.40
2022-12-19T00:39:32.700Z,27.05
2022-12-19T00:42:34.229Z,28.35
2022-12-19T00:45:38.582Z,26.35
2022-12-19T00:48:41.197Z,26.00
2022-12-19T00:51:42.734Z,26.60
2022-12-19T00:54:44.307Z,26.38
2022-12-19T00:57:46.835Z,24.77
2022-12-19T01:00:48.498Z,25.27
2022-12-19T01:04:19.111Z,26.40
2022-12-19T01:07:12.324Z,25.65
2022-12-19T01:10:13.919Z,25.00
2022-12-19T01:13:17.495Z,27.02
2022-12-19T01:16:19.166Z,25.35
2022-12-19T01:19:21.858Z,26.35
2022-12-19T01:22:23.403Z,25.67
2022-12-19T01:25:24.934Z,26.55
2022-12-19T01:28:26.913Z,27.50
2022-12-19T01:31:28.611Z,26.52
2022-12-19T01:34:30.246Z,26.85
2022-12-19T01:37:31.765Z,26.67
2022-12-19T01:40:34.371Z,27.73
2022-12-19T01:44:00.111Z,27.48
2022-12-19T01:47:02.119Z,27.95
2022-12-19T01:50:04.031Z,27.42
2022-12-19T01:53:08.517Z,27.63
2022-12-19T01:56:10.981Z,27.15
2022-12-19T01:59:20.733Z,28.40
2022-12-19T02:02:35.321Z,28.23
2022-12-19T02:05:39.062Z,29.52
2022-12-19T02:08:41.935Z,28.77
2022-12-19T02:11:43.465Z,28.48
2022-12-19T02:14:45.092Z,26.77
2022-12-19T02:18:06.623Z,25.60
2022-12-19T02:21:33.540Z,26.23
2022-12-19T02:24:37.889Z,24.02
2022-12-19T02:28:05.365Z,24.92
2022-12-19T02:31:32.660Z,24.75
2022-12-19T02:34:45.185Z,24.48
2022-12-19T02:38:24.060Z,24.63
2022-12-19T02:41:44.634Z,23.35
2022-12-19T02:44:50.401Z,23.88
2022-12-19T02:47:52.530Z,23.23
2022-12-19T02:50:54.081Z,24.60
2022-12-19T02:53:55.733Z,23.48
2022-12-19T02:57:11.981Z,24.13
2022-12-19T03:00:18.956Z,22.85
2022-12-19T03:03:28.943Z,23.95
2022-12-19T03:06:49.315Z,17.08
2022-12-19T03:10:08.587Z,23.52
2022-12-19T03:13:16.034Z,23.95
2022-12-19T03:16:17.624Z,24.73
2022-12-19T03:19:19.331Z,24.80
2022-12-19T03:22:20.975Z,23.52
2022-12-19T03:25:24.132Z,23.95
2022-12-19T03:28:47.987Z,23.83
2022-12-19T03:31:51.275Z,25.73
2022-12-19T03:34:59.590Z,25.52
2022-12-19T03:38:04.032Z,26.02
2022-12-19T03:41:08.648Z,26.95
2022-12-19T03:44:13.683Z,26.55
2022-12-19T03:47:22.726Z,26.48
2022-12-19T03:50:30.678Z,25.48
2022-12-19T03:53:56.283Z,25.67
2022-12-19T03:57:08.833Z,27.02
2022-12-19T04:00:16.206Z,27.02
2022-12-19T04:03:19.104Z,25.63
2022-12-19T04:06:21.824Z,26.52
2022-12-19T04:09:24.072Z,25.58
2022-12-19T04:12:32.330Z,27.13
2022-12-19T04:15:52.547Z,26.50
2022-12-19T04:19:16.559Z,26.17
2022-12-19T04:22:36.957Z,26.90
2022-12-19T04:25:46.254Z,27.13
2022-12-19T04:28:55.633Z,27.85
2022-12-19T04:31:57.391Z,26.77
2022-12-19T04:34:58.999Z,28.95
2022-12-19T04:38:00.724Z,28.27
2022-12-19T04:41:02.264Z,28.52
2022-12-19T04:44:03.962Z,26.92
2022-12-19T04:47:05.581Z,27.05
2022-12-19T04:50:07.310Z,26.60
2022-12-19T04:53:08.889Z,28.50
2022-12-19T04:56:10.548Z,29.08
2022-12-19T04:59:12.131Z,27.45
2022-12-19T05:02:13.860Z,28.05
2022-12-19T05:05:16.532Z,29.27
2022-12-19T05:08:18.095Z,27.23
2022-12-19T05:11:20.143Z,28.92
2022-12-19T05:14:21.770Z,28.13
2022-12-19T05:17:23.355Z,28.08
2022-12-19T05:20:24.892Z,28.65
2022-12-19T05:23:26.650Z,29.48
2022-12-19T05:26:28.244Z,29.92
2022-12-19T05:29:29.790Z,30.00
2022-12-19T05:32:34.751Z,30.02
2022-12-19T05:35:36.896Z,29.52
2022-12-19T05:38:38.647Z,30.02
2022-12-19T05:41:40.193Z,31.13
2022-12-19T05:44:41.735Z,29.67
2022-12-19T05:47:46.476Z,32.20
2022-12-19T05:50:50.033Z,31.15
2022-12-19T05:53:51.625Z,31.45
2022-12-19T05:56:53.184Z,31.60
2022-12-19T05:59:54.693Z,30.92
2022-12-19T06:02:56.537Z,30.63
2022-12-19T06:06:10.177Z,30.13
2022-12-19T06:09:11.768Z,30.55
2022-12-19T06:12:13.289Z,28.73
2022-12-19T06:15:17.330Z,27.75
2022-12-19T06:18:18.869Z,27.83
2022-12-19T06:21:23.595Z,28.95
2022-12-19T06:24:25.921Z,29.23
2022-12-19T06:27:27.464Z,28.20
2022-12-19T06:30:29.030Z,29.50
2022-12-19T06:33:32.478Z,29.08
2022-12-19T06:36:34.029Z,28.45
2022-12-19T06:39:35.653Z,28.58
2022-12-19T06:42:37.206Z,27.13
2022-12-19T06:45:38.765Z,27.85
2022-12-19T06:48:40.454Z,27.23
2022-12-19T06:51:42.096Z,27.38
2022-12-19T06:54:43.701Z,27.17
2022-12-19T06:57:46.439Z,26.58
2022-12-19T07:00:48.192Z,25.33
2022-12-19T07:03:50.358Z,24.23
2022-12-19T07:06:51.968Z,24.63
2022-12-19T07:09:53.599Z,23.63
2022-12-19T07:12:55.283Z,24.15
2022-12-19T07:16:00.957Z,24.80
2022-12-19T07:19:02.764Z,23.35
2022-12-19T07:22:05.021Z,24.30
2022-12-19T07:25:07.309Z,22.58
2022-12-19T07:28:09.252Z,23.38
2022-12-19T07:31:11.198Z,22.83
2022-12-19T07:34:12.728Z,23.30
2022-12-19T07:37:14.292Z,22.90
2022-12-19T07:40:16.512Z,21.23
2022-12-19T07:43:18.544Z,22.25
2022-12-19T07:46:21.590Z,22.33
2022-12-19T07:49:23.199Z,21.05
2022-12-19T07:52:24.881Z,22.25
2022-12-19T07:55:27.353Z,20.80
2022-12-19T07:58:28.874Z,20.92
2022-12-19T08:01:30.564Z,21.00
2022-12-19T08:04:32.589Z,21.05
2022-12-19T08:07:34.163Z,21.25
2022-12-19T08:10:35.737Z,21.92
2022-12-19T08:13:42.007Z,20.85
2022-12-19T08:17:18.726Z,20.85
2022-12-19T08:20:11.412Z,21.88
2022-12-19T08:23:13.079Z,21.50
2022-12-19T08:26:24.672Z,20.02
2022-12-19T08:29:26.955Z,21.05
2022-12-19T08:32:36.210Z,22.58
2022-12-19T08:35:37.810Z,21.40
2022-12-19T08:38:39.766Z,20.83
2022-12-19T08:41:41.315Z,22.00
2022-12-19T08:44:43.146Z,21.42
2022-12-19T08:47:45.684Z,22.00
2022-12-19T08:50:56.663Z,21.80
2022-12-19T08:53:58.238Z,21.55
2022-12-19T08:57:02.987Z,21.42
2022-12-19T09:00:06.034Z,21.20
2022-12-19T09:03:09.268Z,21.92
2022-12-19T09:06:19.099Z,20.85
2022-12-19T09:09:21.078Z,21.60
2022-12-19T09:12:22.815Z,22.13
2022-12-19T09:15:24.495Z,20.67
2022-12-19T09:18:26.130Z,21.98
2022-12-19T09:21:29.298Z,21.20
2022-12-19T09:24:30.982Z,21.08
2022-12-19T09:28:25.950Z,20.83
2022-12-19T09:31:16.278Z,21.42
2022-12-19T09:34:18.787Z,20.00
2022-12-19T09:37:44.621Z,19.63
2022-12-19T09:55:04.953Z,18.05
2022-12-19T10:23:46.264Z,16.85
2022-12-19T10:27:09.048Z,16.40
2022-12-19T10:30:31.797Z,17.15
2022-12-19T10:34:29.348Z,16.80
2022-12-19T10:37:49.724Z,16.45
2022-12-19T10:41:16.989Z,16.67
2022-12-19T10:44:31.564Z,16.98
2022-12-19T10:47:45.592Z,17.45
2022-12-19T10:51:06.288Z,18.08
2022-12-19T10:54:09.026Z,16.27
2022-12-19T10:57:22.762Z,15.80
2022-12-19T11:00:24.427Z,16.83
2022-12-19T11:03:26.199Z,16.85
2022-12-19T11:06:41.785Z,16.88
2022-12-19T11:10:07.085Z,16.02
2022-12-19T11:19:28.647Z,16.45
2022-12-19T11:23:51.300Z,16.58
2022-12-19T11:29:38.395Z,15.85
2022-12-19T11:30:06.169Z,16.52
2022-12-19T11:30:43.544Z,16.58
2022-12-19T11:34:50.178Z,16.45
2022-12-19T11:38:00.290Z,15.63
2022-12-19T11:41:33.537Z,17.30
2022-12-19T11:45:14.409Z,16.25
2022-12-19T11:51:37.422Z,14.75
2022-12-19T11:54:59.065Z,14.00
2022-12-19T11:58:00.617Z,15.20
2022-12-19T12:01:10.987Z,14.68
2022-12-19T12:04:46.992Z,13.73
2022-12-19T12:10:15.329Z,14.57
2022-12-19T12:17:06.616Z,14.05
2022-12-19T12:28:50.600Z,14.25
2022-12-19T12:31:17.624Z,14.30
2022-12-19T12:31:31.016Z,13.27
2022-12-19T12:31:44.389Z,13.43
2022-12-19T12:31:49.678Z,13.82
2022-12-19T12:35:32.898Z,13.73
2022-12-19T12:38:16.385Z,12.27
2022-12-19T12:41:15.001Z,13.48
2022-12-19T12:44:17.619Z,12.63
2022-12-19T12:47:29.255Z,12.43
2022-12-19T12:50:33.377Z,11.82
2022-12-19T12:53:42.743Z,12.60
2022-12-19T12:56:46.563Z,12.43
2022-12-19T13:00:08.745Z,11.20
2022-12-19T13:03:15.724Z,11.63
2022-12-19T13:06:31.610Z,11.50
2022-12-19T13:09:36.702Z,11.88
2022-12-19T13:12:59.784Z,11.45
2022-12-19T13:16:40.020Z,11.93
2022-12-19T13:20:17.209Z,12.25
2022-12-19T13:23:33.788Z,11.25
2022-12-19T13:26:50.016Z,11.65
2022-12-19T13:30:00.528Z,10.73
2022-12-19T13:33:02.029Z,10.63
2022-12-19T13:39:46.531Z,10.02
2022-12-19T13:40:02.472Z,11.23
2022-12-19T13:43:25.824Z,10.95
2022-12-19T13:46:43.399Z,10.38
2022-12-19T13:49:45.140Z,11.05
2022-12-19T13:52:50.865Z,11.00
2022-12-19T13:56:00.343Z,10.70
2022-12-19T13:59:04.921Z,11.55
2022-12-19T14:02:15.547Z,10.68
2022-12-19T14:10:07.605Z,11.48
2022-12-19T14:13:49.046Z,10.90
2022-12-19T14:16:18.276Z,11.15
2022-12-19T14:19:25.066Z,10.73
2022-12-19T14:22:27.232Z,10.82
2022-12-19T14:28:14.535Z,10.55
2022-12-19T14:29:09.261Z,9.88
2022-12-19T14:33:39.980Z,10.68
2022-12-19T14:36:10.648Z,10.82
2022-12-19T14:39:23.669Z,11.65
2022-12-19T14:43:57.659Z,11.15
2022-12-19T14:54:01.703Z,9.93
2022-12-19T14:54:04.972Z,11.52
2022-12-19T14:54:30.494Z,13.40
2022-12-19T14:56:59.140Z,11.25
2022-12-19T15:00:04.646Z,11.95
2022-12-19T15:03:30.796Z,10.63
2022-12-19T15:07:07.028Z,10.95
2022-12-19T15:11:05.453Z,10.50
2022-12-19T15:14:51.989Z,11.00
2022-12-19T15:17:16.546Z,10.85
2022-12-19T15:20:21.812Z,9.95
2022-12-19T15:23:23.686Z,10.75
2022-12-19T15:26:38.385Z,10.23
2022-12-19T15:29:40.349Z,10.25
2022-12-19T15:32:42.285Z,8.90
2022-12-19T15:35:44.883Z,9.27
2022-12-19T15:38:46.453Z,10.23
2022-12-19T15:41:51.452Z,9.20
2022-12-19T15:44:55.665Z,9.55
2022-12-19T15:47:57.321Z,9.18
2022-12-19T15:50:59.017Z,9.48
2022-12-19T15:54:38.205Z,9.15
2022-12-19T15:57:36.313Z,8.68
2022-12-19T16:00:39.217Z,8.15
2022-12-19T16:03:41.021Z,8.98
2022-12-19T16:06:42.919Z,8.48
2022-12-19T16:09:44.560Z,8.32
2022-12-19T16:12:50.836Z,8.38
2022-12-19T16:15:54.174Z,8.38
2022-12-19T16:18:55.730Z,7.97
2022-12-19T16:21:58.383Z,7.97
2022-12-19T16:25:00.605Z,8.48
2022-12-19T16:28:04.569Z,9.40
2022-12-19T16:31:15.396Z,8.55
2022-12-19T16:34:20.146Z,9.05
2022-12-19T16:37:23.595Z,8.45
2022-12-19T16:40:28.870Z,8.98
2022-12-19T16:43:35.413Z,9.07
2022-12-19T16:46:37.542Z,8.23
2022-12-19T16:50:14.019Z,8.30
2022-12-19T16:53:55.001Z,8.98
2022-12-19T17:01:05.585Z,7.93
2022-12-19T17:04:42.087Z,8.07
2022-12-19T17:11:38.395Z,7.85
2022-12-19T17:15:23.539Z,9.13
2022-12-19T17:19:06.739Z,7.97
2022-12-19T17:22:42.264Z,8.88
2022-12-19T17:25:56.654Z,8.85
2022-12-19T17:29:09.267Z,8.73
2022-12-19T17:32:24.040Z,7.63
2022-12-19T17:35:39.715Z,8.57
2022-12-19T17:38:55.028Z,8.02
2022-12-19T17:42:04.371Z,8.60
2022-12-19T17:45:08.294Z,9.30
2022-12-19T17:48:32.270Z,8.50
2022-12-19T17:58:36.121Z,8.50
2022-12-19T18:01:48.306Z,8.15
2022-12-19T18:05:07.515Z,7.70
2022-12-19T18:08:34.447Z,9.00
2022-12-19T18:16:20.179Z,7.00
2022-12-19T18:24:08.701Z,7.57
2022-12-19T18:37:39.250Z,7.40
2022-12-19T18:41:15.443Z,7.53
2022-12-19T18:48:59.979Z,7.20
2022-12-19T18:59:49.147Z,7.28
2022-12-19T19:03:22.434Z,7.88
2022-12-19T19:10:38.882Z,7.25
2022-12-19T19:17:34.520Z,7.70
2022-12-19T19:20:39.444Z,6.80
2022-12-19T19:23:51.435Z,6.38
2022-12-19T19:26:53.387Z,7.38
2022-12-19T19:29:54.911Z,6.63
2022-12-19T19:33:15.037Z,7.15
2022-12-19T19:36:24.413Z,7.43
2022-12-19T19:39:27.690Z,8.02
2022-12-19T19:42:29.438Z,6.88
2022-12-19T19:45:31.198Z,7.60
2022-12-19T19:48:32.935Z,7.60
2022-12-19T19:51:34.512Z,7.18
2022-12-19T19:54:36.078Z,7.75
2022-12-19T19:57:37.651Z,7.78
2022-12-19T20:00:39.747Z,6.95
2022-12-19T20:03:42.996Z,7.82
2022-12-19T20:06:44.878Z,7.32
2022-12-19T20:09:46.455Z,7.20
2022-12-19T20:12:48.034Z,7.60
2022-12-19T20:15:50.491Z,7.13
2022-12-19T20:18:53.161Z,6.53
2022-12-19T20:21:54.782Z,6.78
2022-12-19T20:24:57.309Z,7.05
2022-12-19T20:27:58.827Z,6.57
2022-12-19T20:31:01.404Z,5.93
2022-12-19T20:34:03.015Z,6.47
2022-12-19T20:37:05.792Z,6.03
2022-12-19T20:40:08.140Z,6.63
2022-12-19T20:43:09.823Z,6.25
2022-12-19T20:46:17.486Z,6.50
2022-12-19T20:49:19.078Z,6.13
2022-12-19T20:52:20.653Z,5.80
2022-12-19T20:55:22.333Z,6.00
2022-12-19T20:58:24.143Z,5.88
2022-12-19T21:01:25.852Z,5.82
2022-12-19T21:04:27.825Z,5.50
2022-12-19T21:07:29.741Z,5.47
2022-12-19T21:10:31.346Z,5.53
2022-12-19T21:13:33.845Z,5.05
2022-12-19T21:16:36.790Z,5.40
2022-12-19T21:19:38.464Z,5.70
2022-12-19T21:22:40.094Z,6.13
2022-12-19T21:25:41.889Z,6.47
2022-12-19T21:28:44.510Z,6.53
2022-12-19T21:31:46.328Z,5.70
2022-12-19T21:34:48.109Z,5.53
2022-12-19T21:37:51.810Z,5.32
2022-12-19T21:40:53.327Z,5.40
2022-12-19T21:43:55.906Z,5.30
2022-12-19T21:46:57.548Z,5.35
2022-12-19T21:49:59.209Z,5.43
2022-12-19T21:53:01.080Z,5.57
2022-12-19T21:56:25.148Z,5.18
2022-12-19T21:59:26.720Z,5.35
2022-12-19T22:02:28.343Z,5.88
2022-12-19T22:05:29.945Z,5.45
2022-12-19T22:08:32.329Z,5.00
2022-12-19T22:11:35.962Z,5.40
2022-12-19T22:14:38.003Z,5.00
2022-12-19T22:17:39.559Z,5.35
2022-12-19T22:20:42.757Z,5.15
2022-12-19T22:23:44.643Z,4.38
2022-12-19T22:26:46.271Z,4.95
2022-12-19T22:29:47.834Z,5.30
2022-12-19T22:32:49.385Z,5.18
2022-12-19T22:35:51.028Z,4.95
2022-12-19T22:38:52.830Z,5.22
2022-12-19T22:41:54.389Z,4.85
2022-12-19T22:44:56.384Z,4.43
2022-12-19T22:47:58.001Z,4.80
2022-12-19T22:50:59.585Z,4.03
2022-12-19T22:54:01.839Z,4.60
2022-12-19T22:57:03.407Z,3.90
2022-12-19T23:00:11.950Z,4.43
2022-12-19T23:03:13.763Z,4.32
2022-12-19T23:06:16.285Z,4.30
2022-12-19T23:09:18.609Z,4.15
2022-12-19T23:12:20.156Z,4.15
2022-12-19T23:15:21.749Z,4.05
2022-12-19T23:18:23.464Z,3.92
2022-12-19T23:21:26.245Z,3.80
2022-12-19T23:24:27.780Z,3.22
2022-12-19T23:27:29.383Z,3.60
2022-12-19T23:30:30.938Z,3.60
2022-12-19T23:33:33.989Z,3.75
2022-12-19T23:37:09.754Z,4.15
2022-12-19T23:39:57.274Z,4.43
2022-12-19T23:42:58.812Z,3.97
2022-12-19T23:46:04.958Z,3.78
2022-12-19T23:49:06.653Z,3.88
2022-12-19T23:52:08.276Z,3.88
2022-12-19T23:55:10.177Z,3.60
2022-12-19T23:58:15.636Z,4.18
